• Join FlightAware (Why Join?)
  • Login
  • US Flag 
07:18AM EDT


 

Airport Tracker/Info


-or-


 

Live Flight TrackerFlight Track Log ✈ RPA3228 ✈ 15-Jul-2013 ✈ KBNA - KDCA

Flight Track Log - Related Links

Times and Time Zones

All times are in EDT time to prevent confusion due to time zone crossing. See the RPA3228 flight status page for this flight to view local times or setup timezone preferences in your user account.

Time Position Orientation Groundspeed Altitude Reporting Facility
EDT Latitude Longitude Course Direction KTS MPH feet Rate Location/Type
07:38AM 36.1167 -86.6833 64° Northeast 151 174 1,500  Level Nashville TRACON
07:40AM 36.0667 -86.6167 133° Southeast 241 277 4,500 2,640 Climbing Nashville TRACON
07:41AM 36.1633 -86.2836 76° East  Level FlightAware Approximate
07:41AM 36.1000 -86.5333 64° Northeast 292 336 7,900  Level Nashville TRACON
07:42AM 36.1871 -86.1572 80° East  Level FlightAware Approximate
07:42AM 36.1117 -86.4492 80° East 369 425 10,800  Level Memphis Center
07:43AM 36.2136 -86.0328 64° Northeast  Level FlightAware Approximate
07:43AM 36.1372 -86.3400 74° East 327 376 12,800  Level Memphis Center
07:44AM 36.2601 -85.9165 64° Northeast  Level FlightAware Approximate
07:44AM 36.1647 -86.2256 73° East 332 382 15,400  Level Memphis Center
07:45AM 36.1881 -86.1164 75° East 350 403 17,200 1,800 Climbing Memphis Center
07:46AM 36.2322 -86.0008 65° Northeast 360 414 19,100 2,040 Climbing Memphis Center
07:48AM 36.3239 -85.7936 61° Northeast 392 451 23,000 1,920 Climbing Indianapolis Center
07:49AM 36.3794 -85.6761 60° Northeast 394 453 24,600 1,680 Climbing Indianapolis Center
07:50AM 36.4494 -85.5292 59° Northeast 408 470 26,500 1,560 Climbing Indianapolis Center
07:51AM 36.5094 -85.4044 59° Northeast 415 478 27,900 1,440 Climbing Indianapolis Center
07:52AM 36.5689 -85.2778 60° Northeast 421 484 29,500 1,500 Climbing Indianapolis Center
07:53AM 36.6247 -85.1503 61° Northeast 420 483 31,000 720 Climbing Indianapolis Center
07:54AM 36.6669 -85.0117 69° East 424 488 31,000  Level Indianapolis Center
07:55AM 36.7094 -84.8681 70° East 435 501 31,000  Level Indianapolis Center
07:56AM 36.7522 -84.7269 69° East 433 498 31,000  Level Indianapolis Center
07:57AM 36.7950 -84.5844 69° East 438 504 31,000  Level Indianapolis Center
07:58AM 36.8406 -84.4381 69° East 434 499 31,000  Level Indianapolis Center
07:59AM 36.8833 -84.2975 69° East 432 497 31,000  Level Indianapolis Center
08:00AM 36.9242 -84.1558 70° East 432 497 31,000  Level Indianapolis Center
08:01AM 36.9736 -83.9914 69° East 432 497 31,000  Level Indianapolis Center
08:02AM 37.0147 -83.8494 70° East 432 497 31,000  Level Indianapolis Center
08:03AM 37.0575 -83.7083 69° East 432 497 31,000  Level Indianapolis Center
08:04AM 37.0992 -83.5661 70° East 432 497 31,000  Level Indianapolis Center
08:05AM 37.1408 -83.4228 70° East 432 497 31,000  Level Indianapolis Center
08:06AM 37.1828 -83.2792 70° East 433 498 31,000  Level Indianapolis Center
08:07AM 37.2242 -83.1350 70° East 434 499 31,000  Level Indianapolis Center
08:08AM 37.2656 -82.9917 70° East 432 497 31,000  Level Indianapolis Center
08:09AM 37.3078 -82.8458 70° East 438 504 31,000  Level Indianapolis Center
08:10AM 37.3556 -82.6761 70° East 439 505 31,000  Level Indianapolis Center
08:11AM 37.3967 -82.5306 70° East 438 504 31,000  Level Indianapolis Center
08:12AM 37.4369 -82.3853 71° East 437 503 31,000  Level Indianapolis Center
08:13AM 37.4761 -82.2433 71° East 429 494 31,000  Level Indianapolis Center
08:14AM 37.5164 -82.1031 70° East 425 489 31,000  Level Indianapolis Center
08:15AM 37.5544 -81.9628 71° East 424 488 31,000  Level Indianapolis Center
08:16AM 37.5928 -81.8228 71° East 423 487 31,000  Level Indianapolis Center
08:17AM 37.6306 -81.6822 71° East 422 486 31,000  Level Indianapolis Center
08:18AM 37.6742 -81.5208 71° East 418 481 31,000  Level Indianapolis Center
08:19AM 37.7103 -81.3892 71° East 424 488 31,000  Level Indianapolis Center
08:20AM 37.7456 -81.2539 72° East 419 482 31,000  Level Indianapolis Center
08:21AM 37.7931 -81.0869 70° East 432 497 31,000  Level Indianapolis Center
08:22AM 37.8389 -80.9603 65° Northeast 432 497 31,000  Level Indianapolis Center
08:23AM 37.8878 -80.8211 66° East 433 498 31,000  Level Indianapolis Center
08:24AM 37.9364 -80.6822 66° East 430 495 31,000  Level Indianapolis Center
08:25AM 37.9853 -80.5478 65° Northeast 429 494 31,000  Level Washington Center
08:26AM 38.0347 -80.4086 66° East 429 494 31,000 -360 Level Washington Center
08:27AM 38.0889 -80.2564 66° East 429 494 30,300 -960 Descending Washington Center
08:28AM 38.1400 -80.1169 65° Northeast 434 499 29,100 -1,200 Descending Washington Center
08:29AM 38.1889 -79.9800 66° East 434 499 27,900 -1,200 Descending Washington Center
08:30AM 38.2378 -79.8428 66° East 429 494 26,700 -960 Descending Washington Center
08:31AM 38.2794 -79.7208 66° East 429 494 26,000 -360 Descending Washington Center
08:32AM 38.3256 -79.5883 66° East 419 482 26,000  Level Washington Center
08:33AM 38.3739 -79.4558 65° Northeast 414 476 26,000  Level Washington Center
08:34AM 38.4156 -79.3203 69° East 414 476 26,000  Level Washington Center
08:35AM 38.4492 -79.1761 73° East 414 476 26,000  Level Washington Center
08:36AM 38.4747 -79.0156 78° East 414 476 26,000  Level Washington Center
08:37AM 38.4994 -78.8786 77° East 409 471 26,000 -840 Level Washington Center
08:38AM 38.5178 -78.7389 80° East 409 471 24,400 -1,740 Descending Washington Center
08:39AM 38.5381 -78.6042 79° East 404 465 22,600 -1,440 Descending Washington Center
08:40AM 38.5600 -78.4697 78° East 392 451 21,600 -1,140 Descending Washington Center
08:41AM 38.5817 -78.3406 78° East 381 438 20,400 -1,440 Descending Washington Center
08:42AM 38.6053 -78.2217 76° East 366 421 18,800 -1,320 Descending Washington Center
08:43AM 38.6389 -78.1167 68° East 336 387 17,800 -1,440 Descending Washington Center
08:44AM 38.6722 -78.0089 68° East 319 367 15,900 -1,740 Descending Washington Center
08:45AM 38.7033 -77.9194 66° East 312 359 14,400 -1,560 Descending Washington Center
08:46AM 38.7406 -77.8194 64° Northeast 312 359 12,900 -1,380 Descending Washington Center
08:47AM 38.7942 -77.7383 50° Northeast 301 346 11,600 -1,380 Descending Washington Center
08:48AM 38.8561 -77.6494 48° Northeast 301 346 10,200 -1,440 Descending Washington Center
08:50AM 38.9167 -77.5500 52° Northeast 296 341 8,700 -1,140 Descending Potomac TRACON
08:50AM 38.9500 -77.4833 57° Northeast 283 326 8,000 -900 Descending Potomac TRACON
08:51AM 38.9333 -77.4000 104° East 244 281 7,000 -1,020 Descending Potomac TRACON
08:52AM 38.9167 -77.3167 104° East 243 280 6,000 -660 Descending Potomac TRACON
08:53AM 38.9500 -77.2833 38° Northeast 241 277 5,800 -780 Descending Potomac TRACON
08:54AM 39.0000 -77.3000 345° North 230 265 4,500 -1,440 Descending Potomac TRACON
08:55AM 39.0000 -77.2333 90° East 233 268 3,000 -840 Descending Potomac TRACON
08:56AM 38.9833 -77.1667 108° East 184 212 3,000  Level Potomac TRACON